x

Northern Hawaii One - 245nm Ne Of Honolulu Hi (51000) Wave Buoy

9:50pm - Wed 20th Aug 2014 All times are HST. -10 hours from GMT.

  • Sig Wave height 4.6ft
  • Peak Period 8s
  • Average Period 6s
  • Wind
    18mph, 22mph gusts
  • Sea Temp 78°f
  • Air Temp 74°f
  • Sea Pressure 1021.8mb
  • Northern Hawaii One - 245nm Ne Of Honolulu Hi
  • Northern Hawaii One - 245nm Ne Of Honolulu Hi

More Historic Weather Station data

Upgrade to MSW Pro to gain access to the past 30 days of data for over 8000 Wavebouys and Weather Stations around the globe.

Join Pro

Comparision Forecast

View Surf forecast
   
Wed 08/20 9:50pm 4.5ft 8s 6s 18 22 mph 1021.8mb 78f 74f
8:50pm 4.5ft 8s 6s 11
mph
1021.9mb 78f 74f
7:50pm 4.5ft 9s 6s 11 13 mph 1021.5mb 78f 76f
6:50pm 4.5ft 9s 6s 13 16 mph 1021mb 78f 76f
5:50pm 4.5ft 9s 6s 11 13 mph 1020.8mb 78f 76f
4:50pm 4.5ft 9s 6s 11 13 mph 1020.6mb 79f 76f
3:50pm 4.5ft 9s 6s 11 16 mph 1020.8mb 79f 76f
2:50pm 4.5ft 6s 6s 13 16 mph 1020.9mb 78f 76f
1:50pm 5ft 8s 6s 11 16 mph 1021.2mb 78f 76f
12:50pm 5ft 6s 6s 11 13 mph 1021.6mb 78f 76f
11:50am 5ft 9s 6s 13 16 mph 1022mb 78f 76f
10:50am 5ft 9s 6s 13 16 mph 1022mb 78f 76f
9:50am 5.5ft 9s 6s 13 16 mph 1022.3mb 78f 76f
8:50am  -   -   -  18 20 mph 1022.2mb 78f 75f
7:50am 4.5ft 10s 6s 11 13 mph 1022.1mb 77f 76f
6:50am  -   -   -  11 13 mph 1021.8mb 77f 76f
5:50am 5ft 10s 6s 13 16 mph 1021.4mb 77f 75f
4:50am 4.5ft 10s 6s 13 16 mph 1020.8mb 77f 74f
3:50am 5ft 6s 6s 9 11 mph 1020.7mb 77f 74f
2:50am 5ft 10s 6s 9 11 mph 1020.8mb 77f 74f
1:50am 5ft 9s 6s 2 7 mph 1020.9mb 78f 74f
12:50am 5ft 14s 6s 22 27 mph 1021.2mb 78f 70f
Tue 08/19 11:50pm 5ft 9s 6s 13 16 mph 1021.3mb 78f 75f
10:50pm 5ft 14s 6s 20 25 mph 1021.3mb 78f 74f
9:50pm  -   -   -  18 20 mph 1021mb 78f 76f
8:50pm 5ft 13s 6s 16 20 mph 1020.8mb 78f 76f
7:50pm 5ft 14s 6s 16 18 mph 1020.5mb 78f 76f
6:50pm 5ft 11s 6s 13 16 mph 1020mb 78f 76f
5:50pm 5ft 14s 6s 16 18 mph 1019.7mb 79f 76f
4:50pm 5ft 10s 6s 13 18 mph 1019.6mb 79f 76f
3:50pm 5ft 10s 6s 9 13 mph 1019.6mb 79f 75f
2:50pm 4.5ft 14s 6s 13 16 mph 1019.7mb 79f 76f
1:50pm 4.5ft 14s 6s 13 16 mph 1019.9mb 79f 76f
12:50pm 5ft 14s 6s 13 16 mph 1020.3mb 78f 76f
11:50am 4.5ft 11s 6s 9 11 mph 1020.6mb 78f 76f
10:50am 4.5ft 14s 6s 11 13 mph 1020.9mb 78f 76f
9:50am 4.5ft 15s 6s 9 13 mph 1021.3mb 78f 75f
8:50am 4.5ft 15s 6s 11 13 mph 1021.1mb 78f 75f
7:50am 4.5ft 15s 5s 7 9 mph 1021.2mb 77f 74f
6:50am 4.5ft 11s 5s 16 22 mph 1020.9mb 77f 74f
5:50am 4.5ft 14s 6s 11 13 mph 1020.7mb 78f 75f
4:50am 4.5ft 15s 6s 4 7 mph 1020.7mb 78f 73f
3:50am 4.5ft 14s 6s 16 29 mph 1020.8mb 78f 72f
2:50am 4.5ft 15s 6s 16 18 mph 1020.7mb 78f 75f
1:50am 4.5ft 15s 6s 9 11 mph 1021mb 78f 75f
12:50am 4.5ft 15s 6s 11 13 mph 1021.2mb 78f 76f
Mon 08/18 11:50pm 4.5ft 15s 6s 9 11 mph 1021.9mb 78f 76f
10:50pm 4.5ft 15s 6s 11 13 mph 1022.1mb 78f 75f
9:50pm 4ft 15s 6s 9 13 mph 1021.9mb 78f 75f
8:50pm 4ft 16s 6s 11 16 mph 1021.9mb 78f 76f
7:50pm 4ft 16s 6s 11 16 mph 1021.4mb 78f 75f
6:50pm 4.5ft 15s 6s 11 13 mph 1020.9mb 79f 75f
5:50pm 4.5ft 14s 6s 9 11 mph 1020.8mb 79f 76f
4:50pm 4ft 8s 6s 9 11 mph 1021mb 79f 76f
3:50pm 4.5ft 15s 6s 9 11 mph 1021.1mb 79f 76f
2:50pm 4.5ft 15s 6s 9 11 mph 1021.2mb 79f 76f
1:50pm 4.5ft 14s 6s 9 11 mph 1021.6mb 78f 76f
12:50pm 4.5ft 16s 6s 9 11 mph 1021.9mb 78f 76f
11:50am 4.5ft 16s 6s 9 13 mph 1022.1mb 78f 75f
10:50am 4ft 11s 7s 9 13 mph 1022.3mb 78f 76f
9:50am 4ft 14s 6s 7 9 mph 1022.5mb 78f 76f
8:50am 4ft 15s 7s 7 9 mph 1022.3mb 78f 75f
7:50am 4ft 14s 6s 9 11 mph 1022.1mb 77f 75f
6:50am 4ft 14s 6s 9 13 mph 1021.8mb 77f 76f
5:50am 4.5ft 15s 6s 11 13 mph 1021.6mb 77f 75f
4:50am 4ft 14s 6s 9 13 mph 1021.3mb 78f 75f
3:50am 4ft 14s 6s 11 13 mph 1021mb 78f 75f
2:50am 4ft 15s 6s 11 13 mph 1021.1mb 78f 75f
1:50am  -   -   -  11
mph
1021.2mb 78f 75f
12:50am 4ft 14s 6s 11 13 mph 1021.5mb 78f 75f
Sun 08/17 11:50pm 4.5ft 15s 7s 9 11 mph 1021.9mb 78f 76f
10:50pm 4.5ft 15s 6s 9 11 mph 1022.2mb 78f 76f
9:50pm  -   -   -  9 11 mph 1022.1mb 78f 76f
8:50pm 4.5ft 15s 7s 9 11 mph 1022.2mb 78f 76f
7:50pm 4.5ft 9s 7s 4 7 mph 1021.9mb 78f 75f
6:50pm 4.5ft 9s 7s 2 4 mph 1021.6mb 79f 74f
5:50pm 4.5ft 15s 7s  -  2 mph 1021.2mb 79f 74f
4:50pm 4.5ft 15s 7s 2 4 mph 1021.2mb 79f 74f
3:50pm 4.5ft 15s 7s 2 4 mph 1021.3mb 79f 74f
2:50pm 4.5ft 16s 7s 4 7 mph 1021.4mb 79f 74f
1:50pm 4.5ft 10s 7s  -  2 mph 1021.6mb 79f 74f
12:50pm 4.5ft 12s 7s 2 7 mph 1021.9mb 79f 76f
11:50am 4.5ft 10s 7s 7 9 mph 1021.9mb 79f 76f
10:50am 4.5ft 10s 8s 4 7 mph 1022mb 78f 76f
9:50am 4ft 15s 7s 4 7 mph 1022mb 78f 76f
8:50am 4.5ft 11s 7s 4 7 mph 1021.8mb 78f 76f